createdAt,value
2018-04-06T00:02:34.958Z,71.22
2018-04-06T00:17:34.213Z,71.54
2018-04-06T00:32:34.686Z,71.37
2018-04-06T00:47:34.767Z,71.40
2018-04-06T01:02:34.230Z,70.93
2018-04-06T01:17:34.446Z,71.24
2018-04-06T01:32:33.986Z,71.42
2018-04-06T01:47:34.887Z,71.79
2018-04-06T02:02:34.614Z,72.00
2018-04-06T02:17:36.186Z,71.79
2018-04-06T02:32:36.198Z,71.32
2018-04-06T02:47:34.129Z,70.99
2018-04-06T03:02:34.242Z,69.93
2018-04-06T03:17:34.417Z,69.73
2018-04-06T03:32:37.394Z,70.30
2018-04-06T03:47:34.428Z,70.89
2018-04-06T04:02:34.962Z,72.26
2018-04-06T04:17:34.666Z,72.55
2018-04-06T04:32:34.634Z,72.39
2018-04-06T04:47:34.965Z,71.95
2018-04-06T05:02:34.177Z,72.20
2018-04-06T05:17:36.194Z,72.38
2018-04-06T05:32:34.894Z,72.27
2018-04-06T05:47:34.949Z,72.86
2018-04-06T06:02:35.258Z,74.76
2018-04-06T06:17:34.150Z,74.86
2018-04-06T06:32:34.155Z,74.42
2018-04-06T06:47:36.159Z,75.14
2018-04-06T07:02:34.700Z,75.49
2018-04-06T07:17:33.909Z,75.94
2018-04-06T07:32:34.412Z,75.95
2018-04-06T07:47:34.323Z,76.36
2018-04-06T08:02:34.908Z,76.26
2018-04-06T08:17:34.685Z,76.54
2018-04-06T08:32:34.600Z,76.75
2018-04-06T08:47:34.789Z,76.82
2018-04-06T09:02:34.182Z,76.79
2018-04-06T09:17:33.894Z,76.47
2018-04-06T09:32:33.964Z,76.44
2018-04-06T09:47:37.079Z,75.92
2018-04-06T10:02:40.190Z,75.63
2018-04-06T10:17:34.346Z,75.41
2018-04-06T10:32:34.343Z,75.23
2018-04-06T10:47:34.285Z,75.27
2018-04-06T11:02:34.503Z,75.25
2018-04-06T11:17:34.107Z,75.04
2018-04-06T11:32:35.062Z,74.35
2018-04-06T11:47:35.433Z,73.16
2018-04-06T12:02:34.947Z,72.45
2018-04-06T12:17:34.926Z,72.86
2018-04-06T12:32:36.962Z,73.43
2018-04-06T12:47:35.468Z,74.76
2018-04-06T13:02:34.176Z,75.61
2018-04-06T13:17:36.799Z,76.04
2018-04-06T13:32:33.829Z,75.77
2018-04-06T13:47:34.775Z,76.25
2018-04-06T14:02:34.869Z,76.85
2018-04-06T14:17:34.399Z,76.63
2018-04-06T14:32:33.604Z,76.22
2018-04-06T14:47:36.097Z,75.85
2018-04-06T15:02:34.614Z,75.66
2018-04-06T15:17:34.395Z,75.87
2018-04-06T15:32:34.286Z,76.26
2018-04-06T15:47:34.742Z,76.44
2018-04-06T16:02:34.893Z,76.75
2018-04-06T16:17:34.616Z,76.78
2018-04-06T16:32:34.780Z,71.63
2018-04-06T16:47:36.002Z,73.32
2018-04-06T17:02:34.083Z,75.36
2018-04-06T17:17:33.371Z,76.79
2018-04-06T17:32:35.049Z,77.34
2018-04-06T17:47:36.494Z,78.04
2018-04-06T18:02:35.197Z,78.41
2018-04-06T18:17:37.773Z,78.80
2018-04-06T18:32:35.288Z,78.80
2018-04-06T18:47:34.833Z,78.52
2018-04-06T19:02:34.602Z,78.24
2018-04-06T19:17:34.578Z,78.17
2018-04-06T19:32:34.570Z,78.49
2018-04-06T19:47:34.951Z,78.72
2018-04-06T20:02:36.862Z,78.48
2018-04-06T20:17:36.875Z,78.24
2018-04-06T20:32:34.800Z,78.03
2018-04-06T20:47:35.128Z,77.69
2018-04-06T21:02:35.171Z,77.49
2018-04-06T21:17:35.082Z,77.34
2018-04-06T21:32:35.078Z,77.08
2018-04-06T21:47:35.430Z,76.97
2018-04-06T22:02:35.135Z,76.94
2018-04-06T22:17:35.317Z,76.78
2018-04-06T22:32:35.267Z,76.59
2018-04-06T22:47:34.430Z,76.79
2018-04-06T23:02:34.574Z,76.83
2018-04-06T23:17:37.358Z,76.82
2018-04-06T23:32:34.527Z,77.02
2018-04-06T23:47:34.885Z,76.93
